Alabama, New York
Current Conditions -  °F | °C
As of 10:54 AM on Saturday 25 Oct 2014 (Local Time) from KBUF Reporting Station
Broken Clouds Broken Clouds  
Wind Chill: 58°   Ceiling: 23000
Heat Index: 58°   Visibility: 10mi
Dew Point: 48°   Wind: 22mph
Humidity: 70%   Direction: 210°SSW
Pressure: 29.73"   Gusts: 25mph
Location:  43.1°N, 78.39°W
Report Text: KBUF 251454Z 21019G22KT 10SM FEW040 SCT100 BKN230 14/09 A2973 RMK AO2 PRESFR SLP069 T01440089 58033
Loading
Personal Weather Stations






























Interactive Weather Map New forecast layout! Learn more

10-Day Weather Forecast

Advertisements
Track Severe Weather on mobile